AUA64C LDDU-LOWW
Flight info
| Callsign | AUA64C |
|---|---|
| Flight time | 1h 13m |
| Altitude | 36000 |
| Route | MADOS L187 GEBNI DCT OBUTI OBUTI2W |
| Aircraft | A320/M-SDE3FGHIRWY/LB1 |
Departure
| Time | 2026-04-30 09:30 |
|---|---|
| Airport | Dubrovnik Ruđer Bošković Airport (LDDU) |
Arrival
| Time | 2026-04-30 10:43 |
|---|---|
| Airport | Vienna International Airport (LOWW) |
| Time | Latitude | Longitude | Altitude | Speed | Heading |
|---|---|---|---|---|---|
| 2026-04-30 09:09 | 42.56069 | 18.26348 | 512 ft | 0 kts | 207° |
| 2026-04-30 09:21 | 42.56070 | 18.26348 | 512 ft | 1 kts | 207° |
| 2026-04-30 09:22 | 42.56091 | 18.26364 | 512 ft | 4 kts | 216° |
| 2026-04-30 09:22 | 42.56109 | 18.26389 | 512 ft | 4 kts | 249° |
| 2026-04-30 09:22 | 42.56111 | 18.26412 | 511 ft | 0 kts | 305° |
| 2026-04-30 09:26 | 42.56140 | 18.26344 | 512 ft | 13 kts | 300° |
| 2026-04-30 09:26 | 42.56180 | 18.26249 | 513 ft | 11 kts | 300° |
| 2026-04-30 09:26 | 42.56212 | 18.26172 | 514 ft | 8 kts | 300° |
| 2026-04-30 09:27 | 42.56240 | 18.26106 | 514 ft | 11 kts | 300° |
| 2026-04-30 09:27 | 42.56303 | 18.25937 | 516 ft | 23 kts | 298° |
| 2026-04-30 09:27 | 42.56384 | 18.25744 | 518 ft | 24 kts | 299° |
| 2026-04-30 09:27 | 42.56465 | 18.25539 | 520 ft | 25 kts | 296° |
| 2026-04-30 09:28 | 42.56552 | 18.25328 | 522 ft | 26 kts | 302° |
| 2026-04-30 09:28 | 42.56628 | 18.25102 | 524 ft | 27 kts | 296° |
| 2026-04-30 09:28 | 42.56721 | 18.24881 | 526 ft | 27 kts | 303° |
| 2026-04-30 09:28 | 42.56819 | 18.24694 | 528 ft | 15 kts | 314° |
| 2026-04-30 09:29 | 42.56910 | 18.24685 | 529 ft | 13 kts | 25° |
| 2026-04-30 09:29 | 42.56948 | 18.24777 | 529 ft | 12 kts | 94° |
| 2026-04-30 09:29 | 42.56923 | 18.24849 | 528 ft | 0 kts | 122° |
| 2026-04-30 09:29 | 42.56921 | 18.24854 | 528 ft | 5 kts | 122° |
| 2026-04-30 09:30 | 42.56792 | 18.25205 | 524 ft | 82 kts | 115° |
| 2026-04-30 09:30 | 42.56410 | 18.26163 | 516 ft | 146 kts | 117° |
| 2026-04-30 09:30 | 42.55885 | 18.27527 | 833 ft | 170 kts | 110° |
| 2026-04-30 09:30 | 42.55281 | 18.28961 | 1568 ft | 177 kts | 115° |
| 2026-04-30 09:31 | 42.54659 | 18.30475 | 2183 ft | 195 kts | 116° |
| 2026-04-30 09:31 | 42.53989 | 18.32203 | 2575 ft | 221 kts | 114° |
| 2026-04-30 09:31 | 42.53123 | 18.34095 | 3089 ft | 251 kts | 127° |
| 2026-04-30 09:31 | 42.51768 | 18.35669 | 4023 ft | 264 kts | 145° |
| 2026-04-30 09:32 | 42.50055 | 18.36679 | 5046 ft | 273 kts | 164° |
| 2026-04-30 09:32 | 42.48180 | 18.36917 | 6104 ft | 275 kts | 185° |
| 2026-04-30 09:32 | 42.46311 | 18.36330 | 7069 ft | 279 kts | 204° |
| 2026-04-30 09:32 | 42.44655 | 18.34985 | 8059 ft | 277 kts | 222° |
| 2026-04-30 09:33 | 42.43278 | 18.33161 | 9053 ft | 279 kts | 224° |
| 2026-04-30 09:33 | 42.41748 | 18.31516 | 10033 ft | 282 kts | 217° |
| 2026-04-30 09:33 | 42.40093 | 18.30067 | 10911 ft | 287 kts | 214° |
| 2026-04-30 09:33 | 42.38323 | 18.28743 | 11742 ft | 294 kts | 210° |
| 2026-04-30 09:34 | 42.36445 | 18.27558 | 12560 ft | 306 kts | 207° |
| 2026-04-30 09:34 | 42.34374 | 18.26500 | 12944 ft | 330 kts | 202° |
| 2026-04-30 09:34 | 42.32112 | 18.25665 | 13616 ft | 340 kts | 198° |
| 2026-04-30 09:34 | 42.29830 | 18.24894 | 14327 ft | 345 kts | 199° |
| 2026-04-30 09:35 | 42.27495 | 18.24095 | 15067 ft | 347 kts | 199° |
| 2026-04-30 09:35 | 42.25269 | 18.22922 | 15785 ft | 342 kts | 216° |
| 2026-04-30 09:35 | 42.23474 | 18.20891 | 16524 ft | 335 kts | 234° |
| 2026-04-30 09:35 | 42.22295 | 18.18224 | 17287 ft | 330 kts | 252° |
| 2026-04-30 09:36 | 42.21846 | 18.15213 | 18124 ft | 329 kts | 269° |
| 2026-04-30 09:36 | 42.22148 | 18.12163 | 18954 ft | 332 kts | 286° |
| 2026-04-30 09:36 | 42.23181 | 18.09359 | 19747 ft | 340 kts | 303° |
| 2026-04-30 09:36 | 42.24911 | 18.07119 | 20522 ft | 353 kts | 322° |
| 2026-04-30 09:37 | 42.27225 | 18.05839 | 21277 ft | 371 kts | 343° |
| 2026-04-30 09:37 | 42.29865 | 18.05792 | 21907 ft | 388 kts | 359° |
| 2026-04-30 09:37 | 42.32559 | 18.06170 | 22513 ft | 392 kts | 359° |
| 2026-04-30 09:37 | 42.35288 | 18.06582 | 23095 ft | 395 kts | 359° |
| 2026-04-30 09:38 | 42.38025 | 18.06995 | 23651 ft | 399 kts | 359° |
| 2026-04-30 09:38 | 42.40795 | 18.07405 | 24134 ft | 402 kts | 359° |
| 2026-04-30 09:38 | 42.43589 | 18.07811 | 24605 ft | 404 kts | 358° |
| 2026-04-30 09:38 | 42.46385 | 18.08215 | 25085 ft | 406 kts | 358° |
| 2026-04-30 09:39 | 42.49205 | 18.08619 | 25563 ft | 408 kts | 358° |
| 2026-04-30 09:39 | 42.52045 | 18.09024 | 26028 ft | 411 kts | 358° |
| 2026-04-30 09:39 | 42.54854 | 18.09423 | 26483 ft | 413 kts | 358° |
| 2026-04-30 09:39 | 42.57721 | 18.09831 | 26977 ft | 416 kts | 358° |
| 2026-04-30 09:40 | 42.60620 | 18.10243 | 27497 ft | 419 kts | 357° |
| 2026-04-30 09:40 | 42.63530 | 18.10654 | 28001 ft | 421 kts | 357° |
| 2026-04-30 09:40 | 42.66449 | 18.11069 | 28476 ft | 423 kts | 356° |
| 2026-04-30 09:40 | 42.69391 | 18.11488 | 28914 ft | 426 kts | 356° |
| 2026-04-30 09:41 | 42.72344 | 18.11911 | 29346 ft | 428 kts | 356° |
| 2026-04-30 09:41 | 42.75318 | 18.12341 | 29749 ft | 431 kts | 356° |
| 2026-04-30 09:41 | 42.78288 | 18.12579 | 30195 ft | 424 kts | 349° |
| 2026-04-30 09:41 | 42.81189 | 18.12206 | 30537 ft | 414 kts | 340° |
| 2026-04-30 09:42 | 42.83952 | 18.11245 | 30920 ft | 406 kts | 332° |
| 2026-04-30 09:42 | 42.86602 | 18.09946 | 31322 ft | 406 kts | 331° |
| 2026-04-30 09:42 | 42.89262 | 18.08638 | 31687 ft | 407 kts | 331° |
| 2026-04-30 09:42 | 42.91936 | 18.07330 | 32070 ft | 408 kts | 331° |
| 2026-04-30 09:43 | 42.94601 | 18.06035 | 32584 ft | 405 kts | 331° |
| 2026-04-30 09:43 | 42.97247 | 18.04749 | 33101 ft | 402 kts | 331° |
| 2026-04-30 09:43 | 42.99875 | 18.03469 | 33578 ft | 400 kts | 331° |
| 2026-04-30 09:43 | 43.02492 | 18.02191 | 34058 ft | 399 kts | 331° |
| 2026-04-30 09:44 | 43.05096 | 18.00916 | 34481 ft | 397 kts | 332° |
| 2026-04-30 09:44 | 43.07702 | 17.99640 | 34814 ft | 398 kts | 332° |
| 2026-04-30 09:44 | 43.10309 | 17.98360 | 35079 ft | 399 kts | 332° |
| 2026-04-30 09:44 | 43.12926 | 17.97067 | 35368 ft | 400 kts | 333° |
| 2026-04-30 09:45 | 43.15550 | 17.95769 | 35650 ft | 401 kts | 333° |
| 2026-04-30 09:45 | 43.18183 | 17.94468 | 35920 ft | 403 kts | 333° |
| 2026-04-30 09:45 | 43.20823 | 17.93163 | 36134 ft | 405 kts | 333° |
| 2026-04-30 09:45 | 43.23466 | 17.91859 | 36193 ft | 401 kts | 333° |
| 2026-04-30 09:46 | 43.28693 | 17.89289 | 36194 ft | 398 kts | 334° |
| 2026-04-30 09:46 | 43.33869 | 17.86731 | 36195 ft | 398 kts | 334° |
| 2026-04-30 09:47 | 43.39093 | 17.84133 | 36193 ft | 399 kts | 334° |
| 2026-04-30 09:47 | 43.44322 | 17.81530 | 36195 ft | 400 kts | 334° |
| 2026-04-30 09:48 | 43.49570 | 17.78924 | 36207 ft | 402 kts | 334° |
| 2026-04-30 09:48 | 43.54825 | 17.76297 | 36221 ft | 402 kts | 334° |
| 2026-04-30 09:49 | 43.60078 | 17.73660 | 36236 ft | 402 kts | 334° |
| 2026-04-30 09:49 | 43.65341 | 17.71025 | 36232 ft | 402 kts | 334° |
| 2026-04-30 09:50 | 43.70608 | 17.68392 | 36243 ft | 404 kts | 334° |
| 2026-04-30 09:50 | 43.75897 | 17.65735 | 36256 ft | 405 kts | 335° |
| 2026-04-30 09:51 | 43.80297 | 17.63521 | 36265 ft | 405 kts | 335° |
| 2026-04-30 09:51 | 43.85592 | 17.60852 | 36272 ft | 405 kts | 335° |
| 2026-04-30 09:52 | 43.90892 | 17.58170 | 36284 ft | 405 kts | 335° |
| 2026-04-30 09:52 | 43.96193 | 17.55486 | 36289 ft | 405 kts | 335° |
| 2026-04-30 09:53 | 44.01496 | 17.52800 | 36303 ft | 406 kts | 335° |
| 2026-04-30 09:53 | 44.06794 | 17.50108 | 36307 ft | 406 kts | 335° |
| 2026-04-30 09:54 | 44.12097 | 17.47412 | 36304 ft | 405 kts | 335° |
| 2026-04-30 09:54 | 44.17391 | 17.44708 | 36309 ft | 405 kts | 336° |
| 2026-04-30 09:55 | 44.22656 | 17.42014 | 36320 ft | 406 kts | 336° |
| 2026-04-30 09:55 | 44.27991 | 17.39289 | 36327 ft | 406 kts | 336° |
| 2026-04-30 09:56 | 44.33260 | 17.36594 | 36335 ft | 406 kts | 336° |
| 2026-04-30 09:56 | 44.38561 | 17.33864 | 36339 ft | 406 kts | 336° |
| 2026-04-30 09:57 | 44.43854 | 17.31132 | 36342 ft | 406 kts | 336° |
| 2026-04-30 09:57 | 44.49156 | 17.28396 | 36344 ft | 406 kts | 336° |
| 2026-04-30 09:58 | 44.54459 | 17.25657 | 36348 ft | 406 kts | 336° |
| 2026-04-30 09:58 | 44.59769 | 17.22911 | 36349 ft | 406 kts | 336° |
| 2026-04-30 09:59 | 44.70078 | 17.17542 | 36360 ft | 407 kts | 336° |
| 2026-04-30 10:00 | 44.78053 | 17.13385 | 36367 ft | 408 kts | 336° |
| 2026-04-30 10:01 | 44.86039 | 17.09209 | 36380 ft | 408 kts | 336° |
| 2026-04-30 10:02 | 44.94032 | 17.05014 | 36385 ft | 409 kts | 337° |
| 2026-04-30 10:02 | 44.99361 | 17.02210 | 36387 ft | 409 kts | 337° |
| 2026-04-30 10:03 | 45.04695 | 16.99410 | 36373 ft | 409 kts | 337° |
| 2026-04-30 10:03 | 45.10019 | 16.96606 | 36372 ft | 408 kts | 337° |
| 2026-04-30 10:04 | 45.15334 | 16.93791 | 36374 ft | 408 kts | 337° |
| 2026-04-30 10:04 | 45.20645 | 16.90971 | 36375 ft | 407 kts | 337° |
| 2026-04-30 10:05 | 45.25950 | 16.88154 | 36375 ft | 407 kts | 337° |
| 2026-04-30 10:05 | 45.31252 | 16.85337 | 36378 ft | 407 kts | 338° |
| 2026-04-30 10:06 | 45.36549 | 16.82518 | 36375 ft | 407 kts | 337° |
| 2026-04-30 10:06 | 45.41847 | 16.79686 | 36376 ft | 407 kts | 337° |
| 2026-04-30 10:07 | 45.47144 | 16.76853 | 36373 ft | 407 kts | 338° |
| 2026-04-30 10:07 | 45.52444 | 16.74022 | 36370 ft | 407 kts | 338° |
| 2026-04-30 10:08 | 45.57743 | 16.71173 | 36382 ft | 407 kts | 338° |
| 2026-04-30 10:08 | 45.63036 | 16.68319 | 36388 ft | 407 kts | 338° |
| 2026-04-30 10:09 | 45.68333 | 16.65459 | 36389 ft | 407 kts | 338° |
| 2026-04-30 10:09 | 45.73624 | 16.62589 | 36392 ft | 407 kts | 338° |
| 2026-04-30 10:10 | 45.78913 | 16.59721 | 36391 ft | 406 kts | 338° |
| 2026-04-30 10:10 | 45.84158 | 16.56884 | 36396 ft | 405 kts | 338° |
| 2026-04-30 10:11 | 45.89427 | 16.54019 | 36393 ft | 405 kts | 338° |
| 2026-04-30 10:11 | 45.94694 | 16.51148 | 36400 ft | 404 kts | 338° |
| 2026-04-30 10:12 | 45.99953 | 16.48273 | 36403 ft | 404 kts | 338° |
| 2026-04-30 10:12 | 46.05204 | 16.45395 | 36411 ft | 404 kts | 338° |
| 2026-04-30 10:13 | 46.10450 | 16.42513 | 36410 ft | 403 kts | 338° |
| 2026-04-30 10:13 | 46.15701 | 16.39634 | 36412 ft | 404 kts | 338° |
| 2026-04-30 10:14 | 46.20949 | 16.36752 | 36409 ft | 404 kts | 338° |
| 2026-04-30 10:14 | 46.28820 | 16.32403 | 36414 ft | 404 kts | 338° |
| 2026-04-30 10:15 | 46.34074 | 16.29491 | 36413 ft | 404 kts | 338° |
| 2026-04-30 10:15 | 46.39426 | 16.27018 | 36413 ft | 406 kts | 349° |
| 2026-04-30 10:16 | 46.42228 | 16.26365 | 36200 ft | 408 kts | 349° |
| 2026-04-30 10:16 | 46.44983 | 16.25724 | 35888 ft | 404 kts | 349° |
| 2026-04-30 10:16 | 46.47748 | 16.25075 | 35393 ft | 401 kts | 349° |
| 2026-04-30 10:17 | 46.53222 | 16.23774 | 34369 ft | 396 kts | 349° |
| 2026-04-30 10:17 | 46.58609 | 16.22493 | 33343 ft | 388 kts | 349° |
| 2026-04-30 10:17 | 46.61262 | 16.21866 | 32854 ft | 384 kts | 349° |
| 2026-04-30 10:18 | 46.63881 | 16.21244 | 32361 ft | 380 kts | 349° |
| 2026-04-30 10:18 | 46.66471 | 16.20625 | 31901 ft | 376 kts | 349° |
| 2026-04-30 10:18 | 46.69039 | 16.20013 | 31438 ft | 372 kts | 349° |
| 2026-04-30 10:19 | 46.74105 | 16.18808 | 30529 ft | 365 kts | 349° |
| 2026-04-30 10:19 | 46.76599 | 16.18213 | 30046 ft | 361 kts | 350° |
| 2026-04-30 10:19 | 46.79053 | 16.17627 | 29619 ft | 355 kts | 350° |
| 2026-04-30 10:19 | 46.81476 | 16.17044 | 29203 ft | 350 kts | 350° |
| 2026-04-30 10:20 | 46.83859 | 16.16468 | 28800 ft | 345 kts | 349° |
| 2026-04-30 10:20 | 46.88525 | 16.15350 | 28027 ft | 335 kts | 349° |
| 2026-04-30 10:20 | 46.90809 | 16.14802 | 27639 ft | 331 kts | 349° |
| 2026-04-30 10:21 | 46.93064 | 16.14259 | 27240 ft | 327 kts | 349° |
| 2026-04-30 10:21 | 46.95302 | 16.13716 | 26828 ft | 325 kts | 349° |
| 2026-04-30 10:21 | 46.97525 | 16.13179 | 26418 ft | 323 kts | 349° |
| 2026-04-30 10:21 | 46.99731 | 16.12645 | 25997 ft | 322 kts | 349° |
| 2026-04-30 10:22 | 47.01937 | 16.12109 | 25572 ft | 320 kts | 349° |
| 2026-04-30 10:22 | 47.04128 | 16.11579 | 25139 ft | 319 kts | 349° |
| 2026-04-30 10:22 | 47.06322 | 16.11049 | 24686 ft | 319 kts | 349° |
| 2026-04-30 10:22 | 47.08511 | 16.10522 | 24252 ft | 318 kts | 349° |
| 2026-04-30 10:23 | 47.10698 | 16.09996 | 23763 ft | 319 kts | 349° |
| 2026-04-30 10:23 | 47.12881 | 16.09469 | 23288 ft | 317 kts | 349° |
| 2026-04-30 10:23 | 47.15053 | 16.08943 | 22841 ft | 316 kts | 349° |
| 2026-04-30 10:23 | 47.17214 | 16.08419 | 22396 ft | 314 kts | 349° |
| 2026-04-30 10:24 | 47.19367 | 16.07897 | 21959 ft | 313 kts | 349° |
| 2026-04-30 10:24 | 47.21506 | 16.07376 | 21525 ft | 312 kts | 349° |
| 2026-04-30 10:24 | 47.23646 | 16.06855 | 21089 ft | 312 kts | 350° |
| 2026-04-30 10:24 | 47.25783 | 16.06334 | 20655 ft | 311 kts | 350° |
| 2026-04-30 10:25 | 47.27914 | 16.05814 | 20226 ft | 310 kts | 350° |
| 2026-04-30 10:25 | 47.30040 | 16.05296 | 19800 ft | 309 kts | 350° |
| 2026-04-30 10:25 | 47.32161 | 16.04778 | 19373 ft | 309 kts | 350° |
| 2026-04-30 10:25 | 47.34285 | 16.04257 | 18949 ft | 310 kts | 350° |
| 2026-04-30 10:26 | 47.36429 | 16.03979 | 18499 ft | 310 kts | 1° |
| 2026-04-30 10:26 | 47.38536 | 16.04433 | 18178 ft | 310 kts | 14° |
| 2026-04-30 10:26 | 47.40585 | 16.05423 | 17947 ft | 310 kts | 17° |
| 2026-04-30 10:26 | 47.42628 | 16.06438 | 17686 ft | 309 kts | 17° |
| 2026-04-30 10:27 | 47.44661 | 16.07443 | 17433 ft | 308 kts | 17° |
| 2026-04-30 10:27 | 47.46688 | 16.08444 | 17177 ft | 307 kts | 17° |
| 2026-04-30 10:27 | 47.48706 | 16.09445 | 16923 ft | 305 kts | 17° |
| 2026-04-30 10:27 | 47.50717 | 16.10445 | 16672 ft | 304 kts | 17° |
| 2026-04-30 10:28 | 47.52719 | 16.11437 | 16413 ft | 303 kts | 17° |
| 2026-04-30 10:28 | 47.54668 | 16.12598 | 16164 ft | 304 kts | 28° |
| 2026-04-30 10:28 | 47.56261 | 16.14659 | 15909 ft | 308 kts | 50° |
| 2026-04-30 10:28 | 47.57215 | 16.17487 | 15666 ft | 310 kts | 69° |
| 2026-04-30 10:29 | 47.57841 | 16.20531 | 15328 ft | 309 kts | 70° |
| 2026-04-30 10:29 | 47.58457 | 16.23583 | 14955 ft | 310 kts | 70° |
| 2026-04-30 10:29 | 47.59070 | 16.26648 | 14580 ft | 311 kts | 70° |
| 2026-04-30 10:29 | 47.59682 | 16.29721 | 14194 ft | 311 kts | 70° |
| 2026-04-30 10:30 | 47.60296 | 16.32795 | 13787 ft | 311 kts | 70° |
| 2026-04-30 10:30 | 47.60912 | 16.35865 | 13289 ft | 312 kts | 70° |
| 2026-04-30 10:30 | 47.61536 | 16.38959 | 12588 ft | 314 kts | 70° |
| 2026-04-30 10:30 | 47.62159 | 16.42057 | 12159 ft | 313 kts | 70° |
| 2026-04-30 10:31 | 47.62778 | 16.45143 | 11773 ft | 311 kts | 70° |
| 2026-04-30 10:31 | 47.63391 | 16.48208 | 11376 ft | 309 kts | 70° |
| 2026-04-30 10:31 | 47.63989 | 16.51211 | 11256 ft | 298 kts | 70° |
| 2026-04-30 10:31 | 47.64561 | 16.54100 | 10790 ft | 289 kts | 71° |
| 2026-04-30 10:32 | 47.65105 | 16.56865 | 10631 ft | 268 kts | 70° |
| 2026-04-30 10:32 | 47.65603 | 16.59405 | 10433 ft | 254 kts | 70° |
| 2026-04-30 10:32 | 47.66094 | 16.61893 | 10007 ft | 249 kts | 70° |
| 2026-04-30 10:32 | 47.66583 | 16.64339 | 9526 ft | 246 kts | 70° |
| 2026-04-30 10:33 | 47.67055 | 16.66770 | 9076 ft | 244 kts | 71° |
| 2026-04-30 10:33 | 47.67512 | 16.69181 | 8636 ft | 242 kts | 71° |
| 2026-04-30 10:33 | 47.68085 | 16.71488 | 8157 ft | 235 kts | 56° |
| 2026-04-30 10:33 | 47.69153 | 16.73256 | 7684 ft | 229 kts | 34° |
| 2026-04-30 10:34 | 47.70569 | 16.74246 | 7213 ft | 225 kts | 12° |
| 2026-04-30 10:34 | 47.72095 | 16.74335 | 6955 ft | 214 kts | 351° |
| 2026-04-30 10:34 | 47.73498 | 16.73867 | 6766 ft | 202 kts | 348° |
| 2026-04-30 10:34 | 47.74834 | 16.73380 | 6372 ft | 195 kts | 347° |
| 2026-04-30 10:35 | 47.76145 | 16.72854 | 5788 ft | 195 kts | 346° |
| 2026-04-30 10:35 | 47.77446 | 16.72316 | 5230 ft | 194 kts | 346° |
| 2026-04-30 10:35 | 47.78728 | 16.71782 | 4793 ft | 190 kts | 346° |
| 2026-04-30 10:35 | 47.79969 | 16.71264 | 4643 ft | 178 kts | 346° |
| 2026-04-30 10:36 | 47.81103 | 16.70790 | 4598 ft | 162 kts | 346° |
| 2026-04-30 10:36 | 47.82220 | 16.70325 | 4558 ft | 173 kts | 346° |
| 2026-04-30 10:36 | 47.83398 | 16.69832 | 4490 ft | 177 kts | 346° |
| 2026-04-30 10:36 | 47.84521 | 16.69364 | 4414 ft | 178 kts | 346° |
| 2026-04-30 10:37 | 47.85711 | 16.68866 | 4338 ft | 177 kts | 346° |
| 2026-04-30 10:37 | 47.86901 | 16.68367 | 4248 ft | 177 kts | 346° |
| 2026-04-30 10:37 | 47.88084 | 16.67872 | 4177 ft | 177 kts | 346° |
| 2026-04-30 10:37 | 47.89270 | 16.67375 | 4097 ft | 177 kts | 346° |
| 2026-04-30 10:38 | 47.90056 | 16.67046 | 4061 ft | 177 kts | 347° |
| 2026-04-30 10:38 | 47.91244 | 16.66548 | 3988 ft | 178 kts | 346° |
| 2026-04-30 10:38 | 47.92432 | 16.66050 | 3879 ft | 172 kts | 346° |
| 2026-04-30 10:38 | 47.93525 | 16.65590 | 3821 ft | 155 kts | 346° |
| 2026-04-30 10:39 | 47.94535 | 16.65166 | 3691 ft | 147 kts | 346° |
| 2026-04-30 10:39 | 47.95496 | 16.64763 | 3526 ft | 141 kts | 346° |
| 2026-04-30 10:39 | 47.96431 | 16.64370 | 3337 ft | 138 kts | 346° |
| 2026-04-30 10:39 | 47.97344 | 16.63987 | 3160 ft | 134 kts | 346° |
| 2026-04-30 10:40 | 47.98244 | 16.63609 | 2984 ft | 135 kts | 346° |
| 2026-04-30 10:40 | 47.99151 | 16.63228 | 2798 ft | 136 kts | 346° |
| 2026-04-30 10:40 | 48.00045 | 16.62852 | 2610 ft | 130 kts | 346° |
| 2026-04-30 10:40 | 48.00899 | 16.62496 | 2451 ft | 128 kts | 348° |
| 2026-04-30 10:41 | 48.01749 | 16.62144 | 2287 ft | 127 kts | 348° |
| 2026-04-30 10:41 | 48.02600 | 16.61779 | 2057 ft | 126 kts | 347° |
| 2026-04-30 10:41 | 48.03441 | 16.61428 | 1919 ft | 127 kts | 346° |
| 2026-04-30 10:41 | 48.04293 | 16.61081 | 1708 ft | 126 kts | 346° |
| 2026-04-30 10:42 | 48.05133 | 16.60722 | 1494 ft | 125 kts | 348° |
| 2026-04-30 10:42 | 48.05964 | 16.60369 | 1286 ft | 126 kts | 347° |
| 2026-04-30 10:42 | 48.06802 | 16.60011 | 1120 ft | 125 kts | 347° |
| 2026-04-30 10:42 | 48.07639 | 16.59661 | 933 ft | 124 kts | 347° |
| 2026-04-30 10:43 | 48.08460 | 16.59304 | 749 ft | 122 kts | 347° |
| 2026-04-30 10:43 | 48.09195 | 16.58995 | 618 ft | 112 kts | 348° |
| 2026-04-30 10:43 | 48.09817 | 16.58761 | 618 ft | 64 kts | 343° |
| 2026-04-30 10:43 | 48.10131 | 16.58620 | 623 ft | 24 kts | 344° |
| 2026-04-30 10:44 | 48.10291 | 16.58551 | 620 ft | 29 kts | 342° |
| 2026-04-30 10:44 | 48.10487 | 16.58468 | 618 ft | 29 kts | 345° |
| 2026-04-30 10:44 | 48.10635 | 16.58411 | 616 ft | 29 kts | 343° |
| 2026-04-30 10:44 | 48.10828 | 16.58312 | 614 ft | 30 kts | 340° |
| 2026-04-30 10:45 | 48.10985 | 16.58138 | 621 ft | 29 kts | 274° |
| 2026-04-30 10:45 | 48.11079 | 16.57923 | 615 ft | 25 kts | 309° |
| 2026-04-30 10:45 | 48.11163 | 16.57689 | 617 ft | 27 kts | 297° |
| 2026-04-30 10:45 | 48.11250 | 16.57438 | 617 ft | 23 kts | 297° |
| 2026-04-30 10:46 | 48.11347 | 16.57349 | 614 ft | 15 kts | 41° |
| 2026-04-30 10:46 | 48.11435 | 16.57361 | 616 ft | 14 kts | 307° |
| 2026-04-30 10:46 | 48.11466 | 16.57226 | 616 ft | 10 kts | 237° |
| 2026-04-30 10:46 | 48.11414 | 16.57193 | 610 ft | 6 kts | 209° |
| 2026-04-30 10:47 | 48.11400 | 16.57182 | 610 ft | 0 kts | 206° |